Cape Providence — 3EWQ — position and weather

sailwx.info

Track history (hours):
 
Tides and Currents Weather Stations Pressure Air Temp Water Temp Dewpoint Dewpoint Depression Visibility Wind Speed Wind Dir Waves Ship Positions

Cape Providence

Last reported at 2014-Jun-20 17:29 UTC. Time now 2014-Jul-23 09:56 UTC.
Position N 39°37' W 031°57'.
Warning: this ship's position is 32 days out of date.

Length 292 m; draft 10.8 m.

Type: Cargo ship. MMSI: 372773000.

Date/timePositionNaut miles runAvg speedWind from/ knotsBaromVisibWave heightAir tempDewpointWater temp
2014-Jun-20 17:29N 39°37' W 031°57'16110.6
2014-Jun-20 02:14N 40°58' W 028°54'3110.3
2014-Jun-19 23:16N 41°13' W 028°18'  
2014-Jun-15 04:13N 50°15' W 001°27'1015.1
2014-Jun-15 03:33N 50°18' W 001°12'1515.2
2014-Jun-15 02:32N 50°22' W 000°48'1613.5
2014-Jun-15 01:23N 50°26' W 000°25'2111.4
2014-Jun-14 23:33N 50°31' E 000°07'10 9.7
2014-Jun-14 22:33N 50°34' E 000°21'9 9.1
2014-Jun-14 21:33N 50°37' E 000°35'1010.2
2014-Jun-14 20:33N 50°42' E 000°49'1212.3
2014-Jun-14 19:33N 50°49' E 001°05'1413.5
2014-Jun-14 18:33N 50°57' E 001°21'1313.1
2014-Jun-14 17:33N 51°07' E 001°35'1111.2
2014-Jun-14 16:33N 51°16' E 001°47'1010.1
2014-Jun-14 15:33N 51°24' E 001°55'9 9.4
2014-Jun-14 14:33N 51°32' E 002°05'10 9.5
2014-Jun-14 13:33N 51°39' E 002°15'5810.8
2014-Jun-14 08:12N 52°03' E 003°40'811.8
2014-Jun-14 07:33N 52°02' E 003°52'9 9.4
2014-Jun-14 06:33N 51°57' E 004°05'2 1.5
2014-Jun-14 05:31N 51°56' E 004°03'0 0.0
2014-Jun-14 04:31N 51°56' E 004°03'0 0.0
2014-Jun-14 03:28N 51°56' E 004°03'0 0.0
2014-Jun-14 02:31N 51°56' E 004°03'0 0.0
2014-Jun-14 01:31N 51°56' E 004°03'0 0.0
2014-Jun-14 00:31N 51°56' E 004°03'0 0.0
2014-Jun-13 23:31N 51°56' E 004°03'0 0.0
2014-Jun-13 22:31N 51°56' E 004°03'0 0.0
2014-Jun-13 21:31N 51°56' E 004°03'0 0.0
2014-Jun-13 20:28N 51°56' E 004°03'0 0.0
2014-Jun-13 19:31N 51°56' E 004°03'0 0.0
2014-Jun-13 18:31N 51°56' E 004°03'0 0.0
2014-Jun-13 17:31N 51°56' E 004°03'0 0.0
2014-Jun-13 16:31N 51°56' E 004°03'0 0.0
2014-Jun-13 15:31N 51°56' E 004°03'0 0.0
2014-Jun-13 14:31N 51°56' E 004°03'0 0.0
2014-Jun-13 13:31N 51°56' E 004°03'0 0.0
2014-Jun-13 12:31N 51°56' E 004°03'0 0.0
2014-Jun-13 11:16N 51°56' E 004°03'0 0.0
2014-Jun-13 10:25N 51°56' E 004°03'0 0.0
2014-Jun-13 09:28N 51°56' E 004°03'0 0.0
2014-Jun-13 08:28N 51°56' E 004°03'0 0.0
2014-Jun-13 06:31N 51°56' E 004°03'0 0.0
2014-Jun-13 05:28N 51°56' E 004°03'0 0.0
2014-Jun-13 04:28N 51°56' E 004°03'0 0.0
2014-Jun-13 03:28N 51°56' E 004°03'0 0.0
2014-Jun-13 02:31N 51°56' E 004°03'0 0.0
2014-Jun-13 01:25N 51°56' E 004°03'0 0.0
2014-Jun-13 00:31N 51°56' E 004°03'0 0.0
2014-Jun-12 23:28N 51°56' E 004°03'0 0.0
2014-Jun-12 22:31N 51°56' E 004°03'0 0.0
2014-Jun-12 21:31N 51°56' E 004°03'0 0.0
2014-Jun-12 20:31N 51°56' E 004°03'0 0.0
2014-Jun-12 19:31N 51°56' E 004°03'0 0.0
2014-Jun-12 18:31N 51°56' E 004°03'0 0.0
2014-Jun-12 17:31N 51°56' E 004°03'0 0.0
2014-Jun-12 16:31N 51°56' E 004°03'0 0.0
2014-Jun-12 15:31N 51°56' E 004°03'0 0.0
2014-Jun-12 14:31N 51°56' E 004°03'0 0.0
2014-Jun-12 13:31N 51°56' E 004°03'0 0.0
2014-Jun-12 12:31N 51°56' E 004°03'0 0.0
2014-Jun-12 11:31N 51°56' E 004°03'0 0.0
2014-Jun-12 10:31N 51°56' E 004°03'0 0.0
2014-Jun-12 09:31N 51°56' E 004°03'0 0.0
2014-Jun-12 08:31N 51°56' E 004°03'0 0.0
2014-Jun-12 07:28N 51°56' E 004°03'0 0.0
2014-Jun-12 06:31N 51°56' E 004°03'0 0.0
2014-Jun-12 05:31N 51°56' E 004°03'0 0.0
2014-Jun-12 04:31N 51°56' E 004°03'0 0.0
2014-Jun-12 03:31N 51°56' E 004°03'0 0.0
2014-Jun-12 02:31N 51°56' E 004°03'0 0.0
2014-Jun-12 01:31N 51°56' E 004°03'0 0.0
2014-Jun-12 00:31N 51°56' E 004°03'0 0.0
2014-Jun-11 23:31N 51°56' E 004°03'0 0.0
2014-Jun-11 22:31N 51°56' E 004°03'0 0.0
2014-Jun-11 21:31N 51°56' E 004°03'0 0.0
2014-Jun-11 20:31N 51°56' E 004°03'0 0.0
2014-Jun-11 19:31N 51°56' E 004°03'0 0.0
2014-Jun-11 18:22N 51°56' E 004°03'0 0.0
2014-Jun-11 17:31N 51°56' E 004°03'0 0.0
2014-Jun-11 16:28N 51°56' E 004°03'0 0.0
2014-Jun-11 15:31N 51°56' E 004°03'0 0.0
2014-Jun-11 14:28N 51°56' E 004°03'0 0.0
2014-Jun-11 13:31N 51°56' E 004°03'0 0.0
2014-Jun-11 12:31N 51°56' E 004°03'0 0.0
2014-Jun-11 11:31N 51°56' E 004°03'0 0.0
2014-Jun-11 10:31N 51°56' E 004°03'0 0.0
2014-Jun-11 09:25N 51°56' E 004°03'0 0.0
2014-Jun-11 08:31N 51°56' E 004°03'0 0.0
2014-Jun-11 07:31N 51°56' E 004°03'0 0.0
2014-Jun-11 06:32N 51°56' E 004°03'0 0.0
2014-Jun-11 05:31N 51°56' E 004°03'0 0.0
2014-Jun-11 04:28N 51°56' E 004°03'0 0.0
2014-Jun-11 03:31N 51°56' E 004°03'0 0.0
2014-Jun-11 02:31N 51°56' E 004°03'0 0.0
2014-Jun-11 01:31N 51°56' E 004°03'0 0.0
2014-Jun-11 00:28N 51°56' E 004°03'0 0.0
2014-Jun-10 23:31N 51°56' E 004°03'0 0.0
2014-Jun-10 22:25N 51°56' E 004°03'0 0.0
2014-Jun-10 21:31N 51°56' E 004°03'2 2.1
2014-Jun-10 20:34N 51°58' E 004°05'6 6.0
2014-Jun-10 19:34N 52°01' E 003°57'9 9.3
2014-Jun-10 18:33N 52°01' E 003°42'9 9.5
2014-Jun-10 17:34N 51°60' E 003°26'  
Track history (hours):
 
Tides and Currents Weather Stations Pressure Air Temp Water Temp Dewpoint Dewpoint Depression Visibility Wind Speed Wind Dir Waves Ship Positions

Cape Providence

Last reported at 2014-Jun-20 17:29 UTC. Time now 2014-Jul-23 09:56 UTC.
Position N 39°37' W 031°57'.
Warning: this ship's position is 32 days out of date.

Length 292 m; draft 10.8 m.

Type: Cargo ship. MMSI: 372773000.

Date/timePositionNaut miles runAvg speedWind from/ knotsBaromVisibWave heightAir tempDewpointWater temp
2014-Jun-20 17:29N 39°37' W 031°57'16110.6
2014-Jun-20 02:14N 40°58' W 028°54'3110.3
2014-Jun-19 23:16N 41°13' W 028°18'  
2014-Jun-15 04:13N 50°15' W 001°27'1015.1
2014-Jun-15 03:33N 50°18' W 001°12'1515.2
2014-Jun-15 02:32N 50°22' W 000°48'1613.5
2014-Jun-15 01:23N 50°26' W 000°25'2111.4
2014-Jun-14 23:33N 50°31' E 000°07'10 9.7
2014-Jun-14 22:33N 50°34' E 000°21'9 9.1
2014-Jun-14 21:33N 50°37' E 000°35'1010.2
2014-Jun-14 20:33N 50°42' E 000°49'1212.3
2014-Jun-14 19:33N 50°49' E 001°05'1413.5
2014-Jun-14 18:33N 50°57' E 001°21'1313.1
2014-Jun-14 17:33N 51°07' E 001°35'1111.2
2014-Jun-14 16:33N 51°16' E 001°47'1010.1
2014-Jun-14 15:33N 51°24' E 001°55'9 9.4
2014-Jun-14 14:33N 51°32' E 002°05'10 9.5
2014-Jun-14 13:33N 51°39' E 002°15'5810.8
2014-Jun-14 08:12N 52°03' E 003°40'811.8
2014-Jun-14 07:33N 52°02' E 003°52'9 9.4
2014-Jun-14 06:33N 51°57' E 004°05'2 1.5
2014-Jun-14 05:31N 51°56' E 004°03'0 0.0
2014-Jun-14 04:31N 51°56' E 004°03'0 0.0
2014-Jun-14 03:28N 51°56' E 004°03'0 0.0
2014-Jun-14 02:31N 51°56' E 004°03'0 0.0
2014-Jun-14 01:31N 51°56' E 004°03'0 0.0
2014-Jun-14 00:31N 51°56' E 004°03'0 0.0
2014-Jun-13 23:31N 51°56' E 004°03'0 0.0
2014-Jun-13 22:31N 51°56' E 004°03'0 0.0
2014-Jun-13 21:31N 51°56' E 004°03'0 0.0
2014-Jun-13 20:28N 51°56' E 004°03'0 0.0
2014-Jun-13 19:31N 51°56' E 004°03'0 0.0
2014-Jun-13 18:31N 51°56' E 004°03'0 0.0
2014-Jun-13 17:31N 51°56' E 004°03'0 0.0
2014-Jun-13 16:31N 51°56' E 004°03'0 0.0
2014-Jun-13 15:31N 51°56' E 004°03'0 0.0
2014-Jun-13 14:31N 51°56' E 004°03'0 0.0
2014-Jun-13 13:31N 51°56' E 004°03'0 0.0
2014-Jun-13 12:31N 51°56' E 004°03'0 0.0
2014-Jun-13 11:16N 51°56' E 004°03'0 0.0
2014-Jun-13 10:25N 51°56' E 004°03'0 0.0
2014-Jun-13 09:28N 51°56' E 004°03'0 0.0
2014-Jun-13 08:28N 51°56' E 004°03'0 0.0
2014-Jun-13 06:31N 51°56' E 004°03'0 0.0
2014-Jun-13 05:28N 51°56' E 004°03'0 0.0
2014-Jun-13 04:28N 51°56' E 004°03'0 0.0
2014-Jun-13 03:28N 51°56' E 004°03'0 0.0
2014-Jun-13 02:31N 51°56' E 004°03'0 0.0
2014-Jun-13 01:25N 51°56' E 004°03'0 0.0
2014-Jun-13 00:31N 51°56' E 004°03'0 0.0
2014-Jun-12 23:28N 51°56' E 004°03'0 0.0
2014-Jun-12 22:31N 51°56' E 004°03'0 0.0
2014-Jun-12 21:31N 51°56' E 004°03'0 0.0
2014-Jun-12 20:31N 51°56' E 004°03'0 0.0
2014-Jun-12 19:31N 51°56' E 004°03'0 0.0
2014-Jun-12 18:31N 51°56' E 004°03'0 0.0
2014-Jun-12 17:31N 51°56' E 004°03'0 0.0
2014-Jun-12 16:31N 51°56' E 004°03'0 0.0
2014-Jun-12 15:31N 51°56' E 004°03'0 0.0
2014-Jun-12 14:31N 51°56' E 004°03'0 0.0
2014-Jun-12 13:31N 51°56' E 004°03'0 0.0
2014-Jun-12 12:31N 51°56' E 004°03'0 0.0
2014-Jun-12 11:31N 51°56' E 004°03'0 0.0
2014-Jun-12 10:31N 51°56' E 004°03'0 0.0
2014-Jun-12 09:31N 51°56' E 004°03'0 0.0
2014-Jun-12 08:31N 51°56' E 004°03'0 0.0
2014-Jun-12 07:28N 51°56' E 004°03'0 0.0
2014-Jun-12 06:31N 51°56' E 004°03'0 0.0
2014-Jun-12 05:31N 51°56' E 004°03'0 0.0
2014-Jun-12 04:31N 51°56' E 004°03'0 0.0
2014-Jun-12 03:31N 51°56' E 004°03'0 0.0
2014-Jun-12 02:31N 51°56' E 004°03'0 0.0
2014-Jun-12 01:31N 51°56' E 004°03'0 0.0
2014-Jun-12 00:31N 51°56' E 004°03'0 0.0
2014-Jun-11 23:31N 51°56' E 004°03'0 0.0
2014-Jun-11 22:31N 51°56' E 004°03'0 0.0
2014-Jun-11 21:31N 51°56' E 004°03'0 0.0
2014-Jun-11 20:31N 51°56' E 004°03'0 0.0
2014-Jun-11 19:31N 51°56' E 004°03'0 0.0
2014-Jun-11 18:22N 51°56' E 004°03'0 0.0
2014-Jun-11 17:31N 51°56' E 004°03'0 0.0
2014-Jun-11 16:28N 51°56' E 004°03'0 0.0
2014-Jun-11 15:31N 51°56' E 004°03'0 0.0
2014-Jun-11 14:28N 51°56' E 004°03'0 0.0
2014-Jun-11 13:31N 51°56' E 004°03'0 0.0
2014-Jun-11 12:31N 51°56' E 004°03'0 0.0
2014-Jun-11 11:31N 51°56' E 004°03'0 0.0
2014-Jun-11 10:31N 51°56' E 004°03'0 0.0
2014-Jun-11 09:25N 51°56' E 004°03'0 0.0
2014-Jun-11 08:31N 51°56' E 004°03'0 0.0
2014-Jun-11 07:31N 51°56' E 004°03'0 0.0
2014-Jun-11 06:32N 51°56' E 004°03'0 0.0
2014-Jun-11 05:31N 51°56' E 004°03'0 0.0
2014-Jun-11 04:28N 51°56' E 004°03'0 0.0
2014-Jun-11 03:31N 51°56' E 004°03'0 0.0
2014-Jun-11 02:31N 51°56' E 004°03'0 0.0
2014-Jun-11 01:31N 51°56' E 004°03'0 0.0
2014-Jun-11 00:28N 51°56' E 004°03'0 0.0
2014-Jun-10 23:31N 51°56' E 004°03'0 0.0
2014-Jun-10 22:25N 51°56' E 004°03'0 0.0
2014-Jun-10 21:31N 51°56' E 004°03'2 2.1
2014-Jun-10 20:34N 51°58' E 004°05'6 6.0
2014-Jun-10 19:34N 52°01' E 003°57'9 9.3
2014-Jun-10 18:33N 52°01' E 003°42'9 9.5
2014-Jun-10 17:34N 51°60' E 003°26'  

Dump ship's entire track history